Time;durP1;ratioP1;P1;durP2;ratioP2;P2;SDS_P1;SDS_P2;PMS_P1;PMS_P2;Temp;Humidity;BMP_temperature;BMP_pressure;BME280_temperature;BME280_humidity;BME280_pressure;Samples;Min_cycle;Max_cycle;Signal;HPM_P1;HPM_P2
2023/06/22 00:01:29;;;;;;;11.32;7.43;;;;;;;;;;5067903;28;25088;-72
2023/06/22 00:03:55;;;;;;;15.27;8.45;;;;;;;;;;5062332;28;25079;-73
2023/06/22 00:06:21;;;;;;;13.38;7.53;;;;;;;;;;5060852;28;25076;-70
2023/06/22 00:08:47;;;;;;;12.48;6.57;;;;;;;;;;5045519;28;25089;-71
2023/06/22 00:11:13;;;;;;;10.77;8.07;;;;;;;;;;5059041;28;25103;-72
2023/06/22 00:13:39;;;;;;;12.88;7.30;;;;;;;;;;5066862;28;25098;-72
2023/06/22 00:16:05;;;;;;;13.38;7.20;;;;;;;;;;5051710;28;25072;-72
2023/06/22 00:18:32;;;;;;;13.18;7.80;;;;;;;;;;5061998;28;25061;-71
2023/06/22 00:20:58;;;;;;;13.63;8.38;;;;;;;;;;5070162;28;25056;-72
2023/06/22 00:23:24;;;;;;;12.63;7.95;;;;;;;;;;5054457;28;25068;-70
2023/06/22 00:25:50;;;;;;;12.02;8.32;;;;;;;;;;5078025;28;25135;-72
2023/06/22 00:28:16;;;;;;;13.13;8.18;;;;;;;;;;5086233;28;25069;-71
2023/06/22 00:30:42;;;;;;;19.80;8.65;;;;;;;;;;5056308;28;25074;-73
2023/06/22 00:33:08;;;;;;;19.33;10.90;;;;;;;;;;5066153;28;25069;-72
2023/06/22 00:35:34;;;;;;;14.85;9.07;;;;;;;;;;5070034;28;25120;-70
2023/06/22 00:38:02;;;;;;;15.82;9.82;;;;;;;;;;5078806;28;25052;-72
2023/06/22 00:40:28;;;;;;;23.63;9.18;;;;;;;;;;5051536;28;25076;-71
2023/06/22 00:42:55;;;;;;;14.68;9.18;;;;;;;;;;5068805;28;25072;-72
2023/06/22 00:45:22;;;;;;;14.43;8.80;;;;;;;;;;5067521;28;25096;-72
2023/06/22 00:47:49;;;;;;;15.52;9.55;;;;;;;;;;5058561;28;25075;-72
2023/06/22 00:50:18;;;;;;;18.25;10.57;;;;;;;;;;5066501;28;25106;-71
2023/06/22 00:52:46;;;;;;;14.20;10.32;;;;;;;;;;5047069;28;25056;-72
2023/06/22 00:55:12;;;;;;;16.60;9.90;;;;;;;;;;5073019;28;25069;-72
2023/06/22 00:57:38;;;;;;;15.70;10.57;;;;;;;;;;5086400;28;25054;-70
2023/06/22 01:00:09;;;;;;;17.88;11.13;;;;;;;;;;5098452;28;25084;-71
2023/06/22 01:02:36;;;;;;;18.98;10.48;;;;;;;;;;5089718;28;25053;-71
2023/06/22 01:05:02;;;;;;;15.25;9.63;;;;;;;;;;5093799;28;25068;-69
2023/06/22 01:07:30;;;;;;;16.30;9.82;;;;;;;;;;5070735;28;25092;-70
2023/06/22 01:10:08;;;;;;;16.02;9.80;;;;;;;;;;5093414;28;25070;-71
2023/06/22 01:12:36;;;;;;;17.60;10.48;;;;;;;;;;5081966;28;25044;-70
2023/06/22 01:15:09;;;;;;;17.00;10.88;;;;;;;;;;5094278;28;25057;-72
2023/06/22 01:17:36;;;;;;;19.90;11.32;;;;;;;;;;5087401;28;25090;-71
2023/06/22 01:20:05;;;;;;;18.65;11.00;;;;;;;;;;5067358;28;25165;-71
2023/06/22 01:22:32;;;;;;;15.57;10.15;;;;;;;;;;5062584;28;24978;-72
2023/06/22 01:25:19;;;;;;;16.35;11.63;;;;;;;;;;5068084;28;25085;-72
2023/06/22 01:27:51;;;;;;;19.88;11.27;;;;;;;;;;5078140;28;25095;-70
2023/06/22 01:30:19;;;;;;;19.33;11.80;;;;;;;;;;5086175;28;25085;-71
2023/06/22 01:32:45;;;;;;;21.50;12.23;;;;;;;;;;5056002;28;25064;-72
2023/06/22 01:35:12;;;;;;;18.13;13.00;;;;;;;;;;5074432;28;25061;-73
2023/06/22 01:37:38;;;;;;;19.55;13.35;;;;;;;;;;5054529;28;25081;-72
2023/06/22 01:40:05;;;;;;;23.02;13.32;;;;;;;;;;5068657;28;25130;-71
2023/06/22 01:42:32;;;;;;;21.65;13.73;;;;;;;;;;5080912;28;25062;-71
2023/06/22 01:44:58;;;;;;;23.05;13.57;;;;;;;;;;5070262;28;25140;-71
2023/06/22 01:47:25;;;;;;;21.33;12.77;;;;;;;;;;5059820;28;25118;-72
2023/06/22 01:49:51;;;;;;;19.58;13.93;;;;;;;;;;5079842;28;25088;-72
2023/06/22 01:52:18;;;;;;;20.45;14.43;;;;;;;;;;5077604;28;25059;-72
2023/06/22 01:54:44;;;;;;;22.10;13.85;;;;;;;;;;5080262;28;25071;-73
2023/06/22 01:57:10;;;;;;;20.98;13.65;;;;;;;;;;5076403;28;25087;-71
2023/06/22 01:59:40;;;;;;;21.35;14.15;;;;;;;;;;5090937;28;25096;-71
2023/06/22 02:02:10;;;;;;;20.80;14.18;;;;;;;;;;5092260;28;25068;-71
2023/06/22 02:04:44;;;;;;;19.35;14.13;;;;;;;;;;5072966;28;25062;-71
2023/06/22 02:07:13;;;;;;;22.33;13.75;;;;;;;;;;5054569;28;25101;-71
2023/06/22 02:09:39;;;;;;;22.45;14.27;;;;;;;;;;5074878;28;25095;-71
2023/06/22 02:12:06;;;;;;;20.15;13.85;;;;;;;;;;5064923;28;25098;-70
2023/06/22 02:14:32;;;;;;;20.92;13.93;;;;;;;;;;5065736;28;25089;-72
2023/06/22 02:16:59;;;;;;;24.55;14.57;;;;;;;;;;5062634;28;25177;-71
2023/06/22 02:19:25;;;;;;;23.75;15.10;;;;;;;;;;5068216;28;25063;-72
2023/06/22 02:21:51;;;;;;;19.90;14.18;;;;;;;;;;5062322;28;25102;-73
2023/06/22 02:24:17;;;;;;;24.80;15.25;;;;;;;;;;5068747;28;25070;-71
2023/06/22 02:26:45;;;;;;;23.83;15.07;;;;;;;;;;5072513;28;25058;-72
2023/06/22 02:29:11;;;;;;;20.77;14.63;;;;;;;;;;5060127;28;25154;-71
2023/06/22 02:31:37;;;;;;;21.25;14.50;;;;;;;;;;5046111;28;25178;-72
2023/06/22 02:34:03;;;;;;;24.85;16.02;;;;;;;;;;5066990;28;25092;-72
2023/06/22 02:36:30;;;;;;;25.00;16.92;;;;;;;;;;5071109;28;25060;-70
2023/06/22 02:38:58;;;;;;;23.05;16.15;;;;;;;;;;5066553;28;25072;-71
2023/06/22 02:41:24;;;;;;;27.80;16.67;;;;;;;;;;5072547;28;25071;-71
2023/06/22 02:43:50;;;;;;;21.38;15.40;;;;;;;;;;5080980;28;25082;-70
2023/06/22 02:46:16;;;;;;;25.30;15.55;;;;;;;;;;5079484;28;25075;-72
2023/06/22 02:48:42;;;;;;;20.73;14.95;;;;;;;;;;5079778;28;25053;-73
2023/06/22 02:51:08;;;;;;;27.05;16.50;;;;;;;;;;5072627;28;25074;-72
2023/06/22 02:53:34;;;;;;;24.33;15.77;;;;;;;;;;5075714;28;25063;-70
2023/06/22 02:56:03;;;;;;;27.35;18.23;;;;;;;;;;5071165;28;25087;-70
2023/06/22 02:58:29;;;;;;;26.13;17.10;;;;;;;;;;5071061;28;25087;-70
2023/06/22 03:00:55;;;;;;;27.52;17.33;;;;;;;;;;5071487;28;25103;-70
2023/06/22 03:03:21;;;;;;;22.85;16.00;;;;;;;;;;5067211;28;25052;-71
2023/06/22 03:05:46;;;;;;;28.05;17.85;;;;;;;;;;5046737;28;25053;-73
2023/06/22 03:08:12;;;;;;;25.20;17.13;;;;;;;;;;5070375;28;25070;-74
2023/06/22 03:10:38;;;;;;;27.55;17.90;;;;;;;;;;5069081;28;25102;-72
2023/06/22 03:13:04;;;;;;;33.42;18.17;;;;;;;;;;5066251;28;25103;-70
2023/06/22 03:15:32;;;;;;;30.02;18.23;;;;;;;;;;5060267;28;25162;-71
2023/06/22 03:17:58;;;;;;;27.90;17.42;;;;;;;;;;5061766;28;25092;-73
2023/06/22 03:20:26;;;;;;;29.40;18.33;;;;;;;;;;5067760;28;25084;-73
2023/06/22 03:22:52;;;;;;;26.90;17.95;;;;;;;;;;5066439;28;25049;-73
2023/06/22 03:25:19;;;;;;;25.75;16.80;;;;;;;;;;5065798;28;25083;-72
2023/06/22 03:27:45;;;;;;;28.73;17.20;;;;;;;;;;5070597;28;25100;-72
2023/06/22 03:30:11;;;;;;;27.73;16.38;;;;;;;;;;5070732;28;25085;-73
2023/06/22 03:32:37;;;;;;;26.30;17.42;;;;;;;;;;5071675;28;25089;-72
2023/06/22 03:35:04;;;;;;;24.58;17.05;;;;;;;;;;5071890;28;25075;-70
2023/06/22 03:37:29;;;;;;;27.98;17.77;;;;;;;;;;5053852;28;25051;-71
2023/06/22 03:39:55;;;;;;;27.30;17.08;;;;;;;;;;5039600;28;25061;-71
2023/06/22 03:42:21;;;;;;;28.92;17.77;;;;;;;;;;5040680;28;25137;-71
2023/06/22 03:44:48;;;;;;;23.45;16.52;;;;;;;;;;5071036;28;25076;-71
2023/06/22 03:47:14;;;;;;;22.58;14.93;;;;;;;;;;5062188;28;25074;-73
2023/06/22 03:49:40;;;;;;;25.55;15.77;;;;;;;;;;5059310;28;25096;-72
2023/06/22 03:52:06;;;;;;;24.60;14.75;;;;;;;;;;5077874;28;25082;-71
2023/06/22 03:54:32;;;;;;;24.65;15.85;;;;;;;;;;5072400;28;25082;-72
2023/06/22 03:56:58;;;;;;;26.20;16.20;;;;;;;;;;5078325;28;25078;-72
2023/06/22 03:59:24;;;;;;;24.35;15.85;;;;;;;;;;5064704;28;25070;-73
2023/06/22 04:01:51;;;;;;;24.23;15.32;;;;;;;;;;5058081;28;25066;-72
2023/06/22 04:04:17;;;;;;;22.90;15.27;;;;;;;;;;5069498;28;25074;-73
2023/06/22 04:06:43;;;;;;;22.60;15.35;;;;;;;;;;5069588;28;25052;-72
2023/06/22 04:09:09;;;;;;;26.52;15.52;;;;;;;;;;5066460;28;25068;-71
2023/06/22 04:11:35;;;;;;;22.13;15.00;;;;;;;;;;5066852;28;25044;-71
2023/06/22 04:14:01;;;;;;;26.30;15.65;;;;;;;;;;5062133;28;25158;-73
2023/06/22 04:16:27;;;;;;;27.05;16.02;;;;;;;;;;5060163;28;25168;-71
2023/06/22 04:18:53;;;;;;;22.77;15.18;;;;;;;;;;5065364;28;25092;-72
2023/06/22 04:21:19;;;;;;;22.65;15.48;;;;;;;;;;5068445;28;25108;-72
2023/06/22 04:23:45;;;;;;;21.10;14.95;;;;;;;;;;5066786;28;25078;-74
2023/06/22 04:26:12;;;;;;;28.10;15.57;;;;;;;;;;5066945;28;25100;-72
2023/06/22 04:28:38;;;;;;;21.75;14.35;;;;;;;;;;5063509;28;25095;-71
2023/06/22 04:31:04;;;;;;;22.13;14.65;;;;;;;;;;5062427;28;25130;-71
2023/06/22 04:33:30;;;;;;;21.70;13.23;;;;;;;;;;5063879;28;25113;-71
2023/06/22 04:36:03;;;;;;;20.73;14.13;;;;;;;;;;5064003;28;25143;-72
2023/06/22 04:38:33;;;;;;;18.92;12.45;;;;;;;;;;5056040;28;25171;-72
2023/06/22 04:41:00;;;;;;;22.20;14.18;;;;;;;;;;5064907;28;25135;-71
2023/06/22 04:43:30;;;;;;;22.63;13.70;;;;;;;;;;5041161;28;25067;-72
2023/06/22 04:45:56;;;;;;;19.08;13.38;;;;;;;;;;5070222;28;25066;-74
2023/06/22 04:48:22;;;;;;;23.52;14.25;;;;;;;;;;5063270;28;25063;-73
2023/06/22 04:50:47;;;;;;;24.10;14.75;;;;;;;;;;5038491;28;25054;-71
2023/06/22 04:53:13;;;;;;;18.70;13.23;;;;;;;;;;5042252;28;25164;-71
2023/06/22 04:55:45;;;;;;;18.20;13.35;;;;;;;;;;5048449;28;25140;-72
2023/06/22 04:58:12;;;;;;;24.92;14.63;;;;;;;;;;5068799;28;25056;-71
2023/06/22 05:00:38;;;;;;;21.63;14.30;;;;;;;;;;5066562;28;25097;-74
2023/06/22 05:03:06;;;;;;;19.92;14.25;;;;;;;;;;5069399;28;25048;-72
2023/06/22 05:05:32;;;;;;;21.67;13.35;;;;;;;;;;5064577;28;25100;-71
2023/06/22 05:08:01;;;;;;;20.58;13.60;;;;;;;;;;5056616;28;25089;-72
2023/06/22 05:10:27;;;;;;;19.15;12.73;;;;;;;;;;5053228;28;25066;-72
2023/06/22 05:12:53;;;;;;;24.55;12.88;;;;;;;;;;5060883;28;25069;-72
2023/06/22 05:15:19;;;;;;;19.92;13.43;;;;;;;;;;5062050;28;25131;-72
2023/06/22 05:17:45;;;;;;;21.33;13.02;;;;;;;;;;5058104;28;25136;-72
2023/06/22 05:20:17;;;;;;;19.75;13.30;;;;;;;;;;5064322;28;25083;-71
2023/06/22 05:22:43;;;;;;;19.98;13.15;;;;;;;;;;5061320;28;25172;-73
2023/06/22 05:25:10;;;;;;;20.17;13.52;;;;;;;;;;5064170;28;25100;-73
2023/06/22 05:27:39;;;;;;;16.80;12.45;;;;;;;;;;5062088;28;25061;-73
2023/06/22 05:30:06;;;;;;;20.60;13.45;;;;;;;;;;5051875;28;25121;-71
2023/06/22 05:32:33;;;;;;;24.45;12.55;;;;;;;;;;5063200;28;25072;-71
2023/06/22 05:34:59;;;;;;;22.15;13.50;;;;;;;;;;5072664;28;25069;-72
2023/06/22 05:37:25;;;;;;;19.70;13.07;;;;;;;;;;5058146;28;25097;-72
2023/06/22 05:39:51;;;;;;;18.52;12.40;;;;;;;;;;5058576;28;25153;-72
2023/06/22 05:42:17;;;;;;;22.75;13.48;;;;;;;;;;5058343;28;25066;-73
2023/06/22 05:44:43;;;;;;;19.05;12.38;;;;;;;;;;5056880;28;25057;-72
2023/06/22 05:47:09;;;;;;;19.77;12.32;;;;;;;;;;5059087;28;25124;-72
2023/06/22 05:49:35;;;;;;;18.70;12.85;;;;;;;;;;5043530;28;25081;-72
2023/06/22 05:52:01;;;;;;;20.65;12.50;;;;;;;;;;5064957;28;25079;-72
2023/06/22 05:54:28;;;;;;;20.98;12.90;;;;;;;;;;5062558;28;25045;-73
2023/06/22 05:56:54;;;;;;;15.85;11.30;;;;;;;;;;5067395;28;25080;-70
2023/06/22 05:59:20;;;;;;;16.95;11.73;;;;;;;;;;5073472;28;25080;-72
2023/06/22 06:01:50;;;;;;;15.60;11.43;;;;;;;;;;5067169;28;25145;-73
2023/06/22 06:04:17;;;;;;;18.52;11.27;;;;;;;;;;5071569;28;25064;-73
2023/06/22 06:06:43;;;;;;;18.65;11.68;;;;;;;;;;5087897;28;25055;-73
2023/06/22 06:09:09;;;;;;;15.30;11.18;;;;;;;;;;5060426;28;25060;-72
2023/06/22 06:11:35;;;;;;;17.65;12.23;;;;;;;;;;5090966;28;25076;-73
2023/06/22 06:14:00;;;;;;;16.10;10.32;;;;;;;;;;5078204;28;25065;-73
2023/06/22 06:16:26;;;;;;;17.95;10.80;;;;;;;;;;5089335;28;25088;-75
2023/06/22 06:18:54;;;;;;;17.45;11.15;;;;;;;;;;5077184;28;25067;-76
2023/06/22 06:21:20;;;;;;;14.75;10.43;;;;;;;;;;5084540;28;25072;-72
2023/06/22 06:23:47;;;;;;;21.30;10.80;;;;;;;;;;5089610;28;25078;-76
2023/06/22 06:26:15;;;;;;;15.40;10.18;;;;;;;;;;5080122;28;25121;-72
2023/06/22 06:28:41;;;;;;;13.35;9.95;;;;;;;;;;5083335;28;25071;-72
2023/06/22 06:31:08;;;;;;;16.65;8.98;;;;;;;;;;5085180;28;25064;-74
2023/06/22 06:33:34;;;;;;;13.95;9.80;;;;;;;;;;5065290;28;25075;-73
2023/06/22 06:36:03;;;;;;;16.30;10.50;;;;;;;;;;5063807;28;25068;-74
2023/06/22 06:38:29;;;;;;;12.57;8.75;;;;;;;;;;5069142;28;25052;-75
2023/06/22 06:40:55;;;;;;;16.60;10.10;;;;;;;;;;5068713;28;25147;-74
2023/06/22 06:43:21;;;;;;;18.58;9.57;;;;;;;;;;5059832;28;25098;-73
2023/06/22 06:45:47;;;;;;;12.48;8.40;;;;;;;;;;5064826;28;25091;-72
2023/06/22 06:48:13;;;;;;;16.30;8.70;;;;;;;;;;5071161;28;25058;-74
2023/06/22 06:50:38;;;;;;;13.55;9.32;;;;;;;;;;5073519;28;25078;-73
2023/06/22 06:53:06;;;;;;;11.70;8.32;;;;;;;;;;5070376;28;25089;-72
2023/06/22 06:55:35;;;;;;;11.43;7.95;;;;;;;;;;5078178;28;25073;-71
2023/06/22 06:58:01;;;;;;;13.85;8.48;;;;;;;;;;5041011;28;25120;-73
2023/06/22 07:00:27;;;;;;;11.35;8.52;;;;;;;;;;5065470;28;25061;-75
2023/06/22 07:02:53;;;;;;;11.55;8.00;;;;;;;;;;5060326;28;25108;-74
2023/06/22 07:05:19;;;;;;;11.00;7.78;;;;;;;;;;5057377;28;25120;-74
2023/06/22 07:07:45;;;;;;;13.10;8.00;;;;;;;;;;5070493;28;25067;-74
2023/06/22 07:10:11;;;;;;;10.90;7.13;;;;;;;;;;5064604;28;25069;-74
2023/06/22 07:12:37;;;;;;;11.00;7.68;;;;;;;;;;5068401;28;25061;-73
2023/06/22 07:15:10;;;;;;;11.95;7.53;;;;;;;;;;5062424;28;25124;-73
2023/06/22 07:17:36;;;;;;;10.85;7.90;;;;;;;;;;5060397;28;25073;-73
2023/06/22 07:20:07;;;;;;;11.45;7.88;;;;;;;;;;5071439;28;25095;-73
2023/06/22 07:22:33;;;;;;;8.02;6.32;;;;;;;;;;5070808;28;25056;-73
2023/06/22 07:24:59;;;;;;;11.15;7.10;;;;;;;;;;5061955;28;25104;-75
2023/06/22 07:27:25;;;;;;;11.82;6.55;;;;;;;;;;5073363;28;25057;-73
2023/06/22 07:29:51;;;;;;;10.73;6.88;;;;;;;;;;5067421;28;25071;-74
2023/06/22 07:32:17;;;;;;;10.15;6.82;;;;;;;;;;5075137;28;25091;-72
2023/06/22 07:34:43;;;;;;;13.68;7.22;;;;;;;;;;5068937;28;25071;-73
2023/06/22 07:37:09;;;;;;;8.32;6.72;;;;;;;;;;5077498;28;25054;-74
2023/06/22 07:39:37;;;;;;;12.15;7.03;;;;;;;;;;5066182;28;25156;-73
2023/06/22 07:42:03;;;;;;;9.25;6.50;;;;;;;;;;5074734;28;25109;-73
2023/06/22 07:44:29;;;;;;;10.23;6.78;;;;;;;;;;5063285;28;25066;-74
2023/06/22 07:46:55;;;;;;;9.52;6.88;;;;;;;;;;5068552;28;25089;-73
2023/06/22 07:49:21;;;;;;;10.80;6.38;;;;;;;;;;5063526;28;25078;-72
2023/06/22 07:51:47;;;;;;;11.45;6.82;;;;;;;;;;5070945;28;25079;-76
2023/06/22 07:54:15;;;;;;;12.27;7.25;;;;;;;;;;5068446;28;25092;-73
2023/06/22 07:56:41;;;;;;;10.45;7.55;;;;;;;;;;5064215;28;25085;-73
2023/06/22 07:59:07;;;;;;;10.88;8.15;;;;;;;;;;5071728;28;25098;-74
2023/06/22 08:01:33;;;;;;;13.40;9.02;;;;;;;;;;5072679;28;25050;-73
2023/06/22 08:03:59;;;;;;;13.48;9.10;;;;;;;;;;5065459;28;25074;-74
2023/06/22 08:06:25;;;;;;;10.13;8.45;;;;;;;;;;5051313;28;25081;-72
2023/06/22 08:08:53;;;;;;;16.90;9.75;;;;;;;;;;5054413;28;25074;-72
2023/06/22 08:11:22;;;;;;;19.80;10.02;;;;;;;;;;5050230;28;25050;-75
2023/06/22 08:13:48;;;;;;;15.65;10.23;;;;;;;;;;5060643;28;25096;-73
2023/06/22 08:16:14;;;;;;;13.60;9.35;;;;;;;;;;5065530;28;25143;-73
2023/06/22 08:18:40;;;;;;;14.38;10.18;;;;;;;;;;5065989;28;25091;-73
2023/06/22 08:21:06;;;;;;;13.43;9.95;;;;;;;;;;5070539;28;25087;-73
2023/06/22 08:23:32;;;;;;;14.68;10.70;;;;;;;;;;5065023;28;25071;-75
2023/06/22 08:25:58;;;;;;;14.90;10.68;;;;;;;;;;5065313;28;25078;-73
2023/06/22 08:28:24;;;;;;;19.10;10.85;;;;;;;;;;5066293;28;25062;-72
2023/06/22 08:30:50;;;;;;;18.27;11.77;;;;;;;;;;5062789;28;25071;-75
2023/06/22 08:33:17;;;;;;;20.13;11.93;;;;;;;;;;5055923;28;25061;-71
2023/06/22 08:35:43;;;;;;;16.00;11.63;;;;;;;;;;5062328;28;25058;-72
2023/06/22 08:38:09;;;;;;;19.15;11.25;;;;;;;;;;5062137;28;25057;-73
2023/06/22 08:40:35;;;;;;;19.35;11.93;;;;;;;;;;5056246;28;25072;-73
2023/06/22 08:43:01;;;;;;;15.30;11.07;;;;;;;;;;5057210;28;25069;-74
2023/06/22 08:45:27;;;;;;;19.38;12.75;;;;;;;;;;5062342;28;25126;-71
2023/06/22 08:47:53;;;;;;;16.63;12.05;;;;;;;;;;5059348;28;25062;-72
2023/06/22 08:50:19;;;;;;;20.77;12.43;;;;;;;;;;5036054;28;25109;-72
2023/06/22 08:52:46;;;;;;;21.92;12.38;;;;;;;;;;5061050;28;25075;-72
2023/06/22 08:55:14;;;;;;;20.38;12.60;;;;;;;;;;5057835;28;25076;-75
2023/06/22 08:57:40;;;;;;;22.02;13.02;;;;;;;;;;5063158;28;25053;-73
2023/06/22 09:00:15;;;;;;;19.05;12.80;;;;;;;;;;5066813;28;25094;-73
2023/06/22 09:02:41;;;;;;;18.38;12.23;;;;;;;;;;5053064;28;25069;-72
2023/06/22 09:05:07;;;;;;;17.73;12.52;;;;;;;;;;5066246;28;25065;-74
2023/06/22 09:07:34;;;;;;;17.10;12.40;;;;;;;;;;5069221;28;25060;-71
2023/06/22 09:10:00;;;;;;;21.17;13.50;;;;;;;;;;5066930;28;25062;-73
2023/06/22 09:12:27;;;;;;;23.88;12.05;;;;;;;;;;5060285;28;25134;-75
2023/06/22 09:14:53;;;;;;;19.42;12.70;;;;;;;;;;5061425;28;25055;-73
2023/06/22 09:17:19;;;;;;;18.85;12.93;;;;;;;;;;5066983;28;25057;-72
2023/06/22 09:19:45;;;;;;;19.88;13.20;;;;;;;;;;5068775;28;25062;-72
2023/06/22 09:22:11;;;;;;;15.40;10.18;;;;;;;;;;5062994;28;25067;-72
2023/06/22 09:24:37;;;;;;;16.05;11.73;;;;;;;;;;5062286;28;25132;-72
2023/06/22 09:27:03;;;;;;;15.07;11.48;;;;;;;;;;5056175;28;25375;-72
2023/06/22 09:29:29;;;;;;;16.00;12.25;;;;;;;;;;5059308;28;25186;-73
2023/06/22 09:31:55;;;;;;;20.15;11.65;;;;;;;;;;5064858;28;25102;-73
2023/06/22 09:34:21;;;;;;;17.63;12.52;;;;;;;;;;5060085;28;25095;-72
2023/06/22 09:36:47;;;;;;;17.35;11.57;;;;;;;;;;5060359;28;25070;-72
2023/06/22 09:39:13;;;;;;;16.55;11.73;;;;;;;;;;5057708;28;25084;-73
2023/06/22 09:41:39;;;;;;;15.65;9.93;;;;;;;;;;5057115;28;25068;-71
2023/06/22 09:44:05;;;;;;;20.40;11.57;;;;;;;;;;5058559;28;25144;-72
2023/06/22 09:46:31;;;;;;;17.52;12.85;;;;;;;;;;5065380;28;25069;-72
2023/06/22 09:48:57;;;;;;;18.52;11.38;;;;;;;;;;5066115;28;25051;-74
2023/06/22 09:51:24;;;;;;;18.02;10.98;;;;;;;;;;5067633;28;25056;-73
2023/06/22 09:53:50;;;;;;;17.65;11.05;;;;;;;;;;5062559;28;25089;-71
2023/06/22 09:56:16;;;;;;;17.83;12.80;;;;;;;;;;5060205;28;25057;-73
2023/06/22 09:58:46;;;;;;;15.40;10.20;;;;;;;;;;5064290;28;25125;-73
2023/06/22 10:01:14;;;;;;;17.27;11.32;;;;;;;;;;5064670;28;25062;-72
2023/06/22 10:03:41;;;;;;;14.77;10.88;;;;;;;;;;5059885;28;25106;-72
2023/06/22 10:06:07;;;;;;;16.25;11.60;;;;;;;;;;5060162;28;25137;-74
2023/06/22 10:08:33;;;;;;;16.42;11.85;;;;;;;;;;5048835;28;25200;-73
2023/06/22 10:10:59;;;;;;;18.05;11.10;;;;;;;;;;5055171;28;25079;-71
2023/06/22 10:13:25;;;;;;;17.67;11.52;;;;;;;;;;5059464;28;25143;-72
2023/06/22 10:15:52;;;;;;;16.27;10.98;;;;;;;;;;5065323;28;25137;-71
2023/06/22 10:18:21;;;;;;;16.58;11.57;;;;;;;;;;5064483;28;25135;-73
2023/06/22 10:20:51;;;;;;;16.83;11.10;;;;;;;;;;5063941;28;25070;-73
2023/06/22 10:23:17;;;;;;;16.80;11.45;;;;;;;;;;5046366;28;25120;-73
2023/06/22 10:25:43;;;;;;;17.05;11.52;;;;;;;;;;5065741;28;25103;-72
2023/06/22 10:28:09;;;;;;;18.02;11.98;;;;;;;;;;5063596;28;25122;-73
2023/06/22 10:30:35;;;;;;;20.33;11.75;;;;;;;;;;5042382;28;25070;-75
2023/06/22 10:33:01;;;;;;;16.85;10.68;;;;;;;;;;5057703;28;25147;-72
2023/06/22 10:35:27;;;;;;;17.00;11.30;;;;;;;;;;5063805;28;25170;-75
2023/06/22 10:37:54;;;;;;;17.63;11.98;;;;;;;;;;5065932;28;25063;-77
2023/06/22 10:40:20;;;;;;;14.40;10.60;;;;;;;;;;5065443;28;25072;-75
2023/06/22 10:42:46;;;;;;;16.23;10.75;;;;;;;;;;5060257;28;25066;-73
2023/06/22 10:45:12;;;;;;;19.30;12.32;;;;;;;;;;5068090;28;25057;-74
2023/06/22 10:47:38;;;;;;;14.27;10.18;;;;;;;;;;5070109;28;25070;-74
2023/06/22 10:50:04;;;;;;;17.30;9.77;;;;;;;;;;5073679;28;25077;-73
2023/06/22 10:52:30;;;;;;;15.93;10.57;;;;;;;;;;5058240;28;25067;-74
2023/06/22 10:54:56;;;;;;;22.50;9.90;;;;;;;;;;5066232;28;25058;-74
2023/06/22 10:57:23;;;;;;;15.40;10.30;;;;;;;;;;5063532;28;25049;-75
2023/06/22 10:59:49;;;;;;;15.27;10.25;;;;;;;;;;5070962;28;25145;-74
2023/06/22 11:02:15;;;;;;;16.20;10.43;;;;;;;;;;5065297;28;25074;-73
2023/06/22 11:04:41;;;;;;;17.00;10.15;;;;;;;;;;5067927;28;25073;-76
2023/06/22 11:07:07;;;;;;;15.45;11.38;;;;;;;;;;5072960;28;25064;-76
2023/06/22 11:09:33;;;;;;;16.65;11.98;;;;;;;;;;5055003;28;25074;-76
2023/06/22 11:11:59;;;;;;;15.68;10.90;;;;;;;;;;5059763;28;25081;-77
2023/06/22 11:14:25;;;;;;;14.93;11.27;;;;;;;;;;5035071;28;25054;-75
2023/06/22 11:16:51;;;;;;;15.13;10.18;;;;;;;;;;5037894;28;25061;-75
2023/06/22 11:19:18;;;;;;;19.10;10.38;;;;;;;;;;5041860;28;25053;-74
2023/06/22 11:21:44;;;;;;;18.95;11.00;;;;;;;;;;5043401;28;25072;-77
2023/06/22 11:24:10;;;;;;;18.38;11.27;;;;;;;;;;5040404;28;25081;-74
2023/06/22 11:26:36;;;;;;;14.95;11.85;;;;;;;;;;5047591;28;25044;-73
2023/06/22 11:29:05;;;;;;;17.98;11.52;;;;;;;;;;5018613;28;25150;-74
2023/06/22 11:31:31;;;;;;;22.08;12.93;;;;;;;;;;5046312;28;25074;-77
2023/06/22 11:33:57;;;;;;;17.80;12.23;;;;;;;;;;5061988;28;25059;-75
2023/06/22 11:36:23;;;;;;;19.17;13.18;;;;;;;;;;5060514;28;25160;-74
2023/06/22 11:38:50;;;;;;;20.60;13.18;;;;;;;;;;5064628;28;25130;-73
2023/06/22 11:41:16;;;;;;;17.45;12.90;;;;;;;;;;5066259;28;25527;-75
2023/06/22 11:43:42;;;;;;;20.48;14.48;;;;;;;;;;5060011;28;25108;-75
2023/06/22 11:46:08;;;;;;;17.85;13.57;;;;;;;;;;5072384;28;25096;-74
2023/06/22 11:48:34;;;;;;;21.05;15.52;;;;;;;;;;5060024;28;25084;-75
2023/06/22 11:51:00;;;;;;;21.65;16.27;;;;;;;;;;5064521;28;25084;-74
2023/06/22 11:53:27;;;;;;;22.95;16.63;;;;;;;;;;5072579;28;25151;-75
2023/06/22 11:55:54;;;;;;;22.83;17.27;;;;;;;;;;5053322;28;25063;-74
2023/06/22 11:58:20;;;;;;;21.70;16.38;;;;;;;;;;5058295;28;25155;-76
2023/06/22 12:00:46;;;;;;;22.90;15.77;;;;;;;;;;5064941;28;25080;-75
2023/06/22 12:03:12;;;;;;;21.90;16.83;;;;;;;;;;5065326;28;25068;-75
2023/06/22 12:05:38;;;;;;;23.98;16.80;;;;;;;;;;5051229;28;25119;-75
2023/06/22 12:08:04;;;;;;;20.80;15.73;;;;;;;;;;5061049;28;25076;-74
2023/06/22 12:10:31;;;;;;;21.20;16.17;;;;;;;;;;5060537;28;25077;-78
2023/06/22 12:12:58;;;;;;;21.45;15.65;;;;;;;;;;5068536;28;25080;-75
2023/06/22 12:15:24;;;;;;;24.90;16.65;;;;;;;;;;5065631;28;25078;-75
2023/06/22 12:17:50;;;;;;;21.15;13.48;;;;;;;;;;5063684;28;25061;-73
2023/06/22 12:20:17;;;;;;;18.75;13.45;;;;;;;;;;5066077;28;25065;-76
2023/06/22 12:22:44;;;;;;;18.58;13.45;;;;;;;;;;5062756;28;25067;-75
2023/06/22 12:25:10;;;;;;;13.63;10.52;;;;;;;;;;5047219;28;25047;-74
2023/06/22 12:27:36;;;;;;;13.93;10.68;;;;;;;;;;5046381;28;25063;-74
2023/06/22 12:30:03;;;;;;;12.77;9.60;;;;;;;;;;5045638;28;25050;-74
2023/06/22 12:32:29;;;;;;;14.77;10.73;;;;;;;;;;5051156;28;25118;-75
2023/06/22 12:34:55;;;;;;;19.35;10.88;;;;;;;;;;5061069;28;25097;-74
2023/06/22 12:37:21;;;;;;;16.63;10.13;;;;;;;;;;5064881;28;25075;-74
2023/06/22 12:39:47;;;;;;;13.73;9.38;;;;;;;;;;5066378;28;25150;-74
2023/06/22 12:42:13;;;;;;;12.82;9.43;;;;;;;;;;5059390;28;25067;-73
2023/06/22 12:44:39;;;;;;;13.38;9.80;;;;;;;;;;5066425;28;25054;-74
2023/06/22 12:47:06;;;;;;;14.35;9.98;;;;;;;;;;5068793;28;25062;-76
2023/06/22 12:49:32;;;;;;;15.15;10.25;;;;;;;;;;5061948;28;25075;-73
2023/06/22 12:51:58;;;;;;;16.55;10.25;;;;;;;;;;5063235;28;25138;-73
2023/06/22 12:54:24;;;;;;;15.60;10.85;;;;;;;;;;5060942;28;25095;-74
2023/06/22 12:56:53;;;;;;;17.33;11.52;;;;;;;;;;5064896;28;25067;-75
2023/06/22 12:59:19;;;;;;;16.98;11.23;;;;;;;;;;5065655;28;25111;-72
2023/06/22 13:01:45;;;;;;;17.08;11.85;;;;;;;;;;5086921;28;25074;-74
2023/06/22 13:04:14;;;;;;;15.65;12.20;;;;;;;;;;5059295;28;25067;-73
2023/06/22 13:06:40;;;;;;;21.75;11.63;;;;;;;;;;5066647;28;25135;-75
2023/06/22 13:09:06;;;;;;;21.23;12.57;;;;;;;;;;5065063;28;25064;-73
2023/06/22 13:11:32;;;;;;;20.13;11.32;;;;;;;;;;5056506;28;25055;-75
2023/06/22 13:14:00;;;;;;;18.67;12.55;;;;;;;;;;5060181;28;25074;-74
2023/06/22 13:16:26;;;;;;;16.77;11.68;;;;;;;;;;5067983;28;25069;-75
2023/06/22 13:18:52;;;;;;;16.98;12.20;;;;;;;;;;5063853;28;25103;-74
2023/06/22 13:21:18;;;;;;;15.73;11.55;;;;;;;;;;5066309;28;25145;-74
2023/06/22 13:23:44;;;;;;;25.92;13.85;;;;;;;;;;5078129;28;25123;-76
2023/06/22 13:26:10;;;;;;;23.17;14.13;;;;;;;;;;5075526;28;25114;-75
2023/06/22 13:28:36;;;;;;;26.23;15.45;;;;;;;;;;5037931;28;25074;-76
2023/06/22 13:31:02;;;;;;;22.15;15.65;;;;;;;;;;5055523;28;25087;-75
2023/06/22 13:33:28;;;;;;;21.40;16.17;;;;;;;;;;5046611;28;25062;-74
2023/06/22 13:35:54;;;;;;;26.65;16.45;;;;;;;;;;5047808;28;25059;-75
2023/06/22 13:38:20;;;;;;;22.13;16.27;;;;;;;;;;5041015;28;25070;-76
2023/06/22 13:40:47;;;;;;;27.38;16.67;;;;;;;;;;5041771;28;25130;-77
2023/06/22 13:43:13;;;;;;;24.88;15.50;;;;;;;;;;5039047;28;25069;-77
2023/06/22 13:45:39;;;;;;;21.70;16.50;;;;;;;;;;5047206;28;25060;-77
2023/06/22 13:48:05;;;;;;;21.35;16.33;;;;;;;;;;5017922;28;25136;-75
2023/06/22 13:50:31;;;;;;;20.92;16.10;;;;;;;;;;5038720;28;25175;-77
2023/06/22 13:52:57;;;;;;;22.00;15.13;;;;;;;;;;5046810;28;25102;-74
2023/06/22 13:55:23;;;;;;;25.27;17.42;;;;;;;;;;5065057;28;25069;-78
2023/06/22 13:57:51;;;;;;;30.00;17.83;;;;;;;;;;5065374;28;25152;-76
2023/06/22 14:00:17;;;;;;;23.05;18.15;;;;;;;;;;5065583;28;25052;-76
2023/06/22 14:02:43;;;;;;;26.85;17.65;;;;;;;;;;5047757;28;25081;-75
2023/06/22 14:05:10;;;;;;;29.90;18.65;;;;;;;;;;5055602;28;25099;-76
2023/06/22 14:07:37;;;;;;;23.13;16.73;;;;;;;;;;5061595;28;25072;-76
2023/06/22 14:10:03;;;;;;;34.65;17.77;;;;;;;;;;5080375;28;25056;-75
2023/06/22 14:12:29;;;;;;;25.08;19.70;;;;;;;;;;5072882;28;25073;-76
2023/06/22 14:14:55;;;;;;;26.35;19.98;;;;;;;;;;5059583;28;25057;-75